EDDM/MUC METAR and TAF weather

Enter ICAO airport designator
Station Type Date Time Source
EDDM METAR 2023/02/05 22:50 UTC NOAA

EDDM 052250Z AUTO VRB01KT CAVOK M02/M03 Q1036 NOSIG


Station Type Date Time Source
EDDM Decoded METAR 2023/02/05 22:50 UTC NOAA

Munchen, Germany (EDDM) 48-21N 011-47E
Feb 05, 2023 - 05:50 PM EST / 2023.02.05 2250 UTC
Wind: Variable at 1 MPH (1 KT):0
Visibility: greater than 7 mile(s):0
Temperature: 28 F (-2 C)
Dew Point: 26 F (-3 C)
Relative Humidity: 92%
Pressure (altimeter): 30.59 in. Hg (1036 hPa)
ob: EDDM 052250Z AUTO VRB01KT CAVOK M02/M03 Q1036 NOSIG
cycle: 23

Station Type Date Time Source
EDDM TAF 2023/02/05 18:31 UTC NOAA

TAF EDDM 051700Z 0518/0624 06004KT 9000 FEW010 BKN020 PROB30
TEMPO 0518/0520 3500 -SN BKN012 PROB30
TEMPO 0604/0608 3000 BCFG
BECMG 0618/0621 09009KT

Example: see airport list